sensor_id;sensor_type;location;lat;lon;timestamp;temperature;humidity
2751;DHT22;1383;48.362;10.908;2023-05-20T00:01:54;13.60;70.10
2751;DHT22;1383;48.362;10.908;2023-05-20T00:04:21;13.70;70.20
2751;DHT22;1383;48.362;10.908;2023-05-20T00:06:48;13.70;69.70
2751;DHT22;1383;48.362;10.908;2023-05-20T00:09:15;13.70;69.50
2751;DHT22;1383;48.362;10.908;2023-05-20T00:11:43;13.60;69.60
2751;DHT22;1383;48.362;10.908;2023-05-20T00:14:09;13.60;70.20
2751;DHT22;1383;48.362;10.908;2023-05-20T00:16:36;13.50;70.90
2751;DHT22;1383;48.362;10.908;2023-05-20T00:19:03;13.50;71.70
2751;DHT22;1383;48.362;10.908;2023-05-20T00:21:30;13.40;71.70
2751;DHT22;1383;48.362;10.908;2023-05-20T00:23:57;13.40;72.20
2751;DHT22;1383;48.362;10.908;2023-05-20T00:26:24;13.40;72.60
2751;DHT22;1383;48.362;10.908;2023-05-20T00:28:51;13.40;72.30
2751;DHT22;1383;48.362;10.908;2023-05-20T00:31:18;13.40;72.60
2751;DHT22;1383;48.362;10.908;2023-05-20T00:33:45;13.40;72.90
2751;DHT22;1383;48.362;10.908;2023-05-20T00:36:12;13.50;72.20
2751;DHT22;1383;48.362;10.908;2023-05-20T00:38:38;13.50;72.60
2751;DHT22;1383;48.362;10.908;2023-05-20T00:41:05;13.60;72.10
2751;DHT22;1383;48.362;10.908;2023-05-20T00:43:32;13.60;71.90
2751;DHT22;1383;48.362;10.908;2023-05-20T00:45:59;13.60;71.20
2751;DHT22;1383;48.362;10.908;2023-05-20T00:48:31;13.60;70.80
2751;DHT22;1383;48.362;10.908;2023-05-20T00:51:02;13.60;70.90
2751;DHT22;1383;48.362;10.908;2023-05-20T00:53:30;13.60;70.40
2751;DHT22;1383;48.362;10.908;2023-05-20T00:55:57;13.50;71.30
2751;DHT22;1383;48.362;10.908;2023-05-20T00:58:24;13.50;71.60
2751;DHT22;1383;48.362;10.908;2023-05-20T01:00:51;13.40;72.30
2751;DHT22;1383;48.362;10.908;2023-05-20T01:03:18;13.50;72.20
2751;DHT22;1383;48.362;10.908;2023-05-20T01:05:45;13.30;72.60
2751;DHT22;1383;48.362;10.908;2023-05-20T01:08:12;13.40;73.00
2751;DHT22;1383;48.362;10.908;2023-05-20T01:10:41;13.40;73.20
2751;DHT22;1383;48.362;10.908;2023-05-20T01:13:17;13.30;72.90
2751;DHT22;1383;48.362;10.908;2023-05-20T01:15:47;13.20;74.30
2751;DHT22;1383;48.362;10.908;2023-05-20T01:18:15;13.20;74.40
2751;DHT22;1383;48.362;10.908;2023-05-20T01:20:49;13.10;75.50
2751;DHT22;1383;48.362;10.908;2023-05-20T01:23:16;13.10;75.30
2751;DHT22;1383;48.362;10.908;2023-05-20T01:25:43;13.00;76.20
2751;DHT22;1383;48.362;10.908;2023-05-20T01:28:10;12.90;77.60
2751;DHT22;1383;48.362;10.908;2023-05-20T01:30:47;12.90;78.30
2751;DHT22;1383;48.362;10.908;2023-05-20T01:33:16;12.90;78.90
2751;DHT22;1383;48.362;10.908;2023-05-20T01:35:45;12.90;79.20
2751;DHT22;1383;48.362;10.908;2023-05-20T01:38:13;12.90;79.10
2751;DHT22;1383;48.362;10.908;2023-05-20T01:40:42;12.90;79.00
2751;DHT22;1383;48.362;10.908;2023-05-20T01:43:09;12.90;79.60
2751;DHT22;1383;48.362;10.908;2023-05-20T01:45:36;12.80;79.60
2751;DHT22;1383;48.362;10.908;2023-05-20T01:48:04;12.90;80.20
2751;DHT22;1383;48.362;10.908;2023-05-20T01:50:31;13.00;80.30
2751;DHT22;1383;48.362;10.908;2023-05-20T01:52:57;13.00;79.00
2751;DHT22;1383;48.362;10.908;2023-05-20T01:55:24;13.00;78.40
2751;DHT22;1383;48.362;10.908;2023-05-20T01:57:51;13.00;78.20
2751;DHT22;1383;48.362;10.908;2023-05-20T02:00:18;13.00;78.20
2751;DHT22;1383;48.362;10.908;2023-05-20T02:02:45;13.00;78.40
2751;DHT22;1383;48.362;10.908;2023-05-20T02:05:12;13.00;78.30
2751;DHT22;1383;48.362;10.908;2023-05-20T02:07:38;13.00;78.70
2751;DHT22;1383;48.362;10.908;2023-05-20T02:10:06;13.10;78.90
2751;DHT22;1383;48.362;10.908;2023-05-20T02:12:32;13.10;78.30
2751;DHT22;1383;48.362;10.908;2023-05-20T02:14:59;13.20;77.50
2751;DHT22;1383;48.362;10.908;2023-05-20T02:17:26;13.20;77.00
2751;DHT22;1383;48.362;10.908;2023-05-20T02:19:53;13.20;77.20
2751;DHT22;1383;48.362;10.908;2023-05-20T02:22:20;13.10;77.10
2751;DHT22;1383;48.362;10.908;2023-05-20T02:24:46;13.10;78.10
2751;DHT22;1383;48.362;10.908;2023-05-20T02:27:13;13.10;77.70
2751;DHT22;1383;48.362;10.908;2023-05-20T02:29:42;13.10;78.00
2751;DHT22;1383;48.362;10.908;2023-05-20T02:32:09;13.10;78.20
2751;DHT22;1383;48.362;10.908;2023-05-20T02:34:36;13.10;77.90
2751;DHT22;1383;48.362;10.908;2023-05-20T02:37:03;13.10;78.20
2751;DHT22;1383;48.362;10.908;2023-05-20T02:39:30;13.10;78.50
2751;DHT22;1383;48.362;10.908;2023-05-20T02:41:57;13.10;78.20
2751;DHT22;1383;48.362;10.908;2023-05-20T02:44:24;13.00;78.40
2751;DHT22;1383;48.362;10.908;2023-05-20T02:46:51;13.10;78.90
2751;DHT22;1383;48.362;10.908;2023-05-20T02:49:17;13.10;78.50
2751;DHT22;1383;48.362;10.908;2023-05-20T02:51:44;13.20;78.30
2751;DHT22;1383;48.362;10.908;2023-05-20T02:54:11;13.20;78.40
2751;DHT22;1383;48.362;10.908;2023-05-20T02:56:38;13.10;78.00
2751;DHT22;1383;48.362;10.908;2023-05-20T02:59:04;13.10;78.60
2751;DHT22;1383;48.362;10.908;2023-05-20T03:01:32;13.00;78.80
2751;DHT22;1383;48.362;10.908;2023-05-20T03:04:02;13.00;79.90
2751;DHT22;1383;48.362;10.908;2023-05-20T03:06:29;13.00;80.60
2751;DHT22;1383;48.362;10.908;2023-05-20T03:08:57;13.20;80.00
2751;DHT22;1383;48.362;10.908;2023-05-20T03:11:24;13.20;79.10
2751;DHT22;1383;48.362;10.908;2023-05-20T03:13:51;13.20;79.20
2751;DHT22;1383;48.362;10.908;2023-05-20T03:16:18;13.10;79.20
2751;DHT22;1383;48.362;10.908;2023-05-20T03:18:45;13.10;79.30
2751;DHT22;1383;48.362;10.908;2023-05-20T03:21:12;13.10;80.30
2751;DHT22;1383;48.362;10.908;2023-05-20T03:23:39;13.10;79.70
2751;DHT22;1383;48.362;10.908;2023-05-20T03:26:05;13.10;80.20
2751;DHT22;1383;48.362;10.908;2023-05-20T03:28:32;13.20;79.70
2751;DHT22;1383;48.362;10.908;2023-05-20T03:30:59;13.20;78.80
2751;DHT22;1383;48.362;10.908;2023-05-20T03:33:28;13.20;78.20
2751;DHT22;1383;48.362;10.908;2023-05-20T03:35:55;13.20;78.90
2751;DHT22;1383;48.362;10.908;2023-05-20T03:38:22;13.20;78.50
2751;DHT22;1383;48.362;10.908;2023-05-20T03:40:49;13.20;78.20
2751;DHT22;1383;48.362;10.908;2023-05-20T03:43:15;13.20;78.10
2751;DHT22;1383;48.362;10.908;2023-05-20T03:45:42;13.20;78.40
2751;DHT22;1383;48.362;10.908;2023-05-20T03:48:09;13.10;78.80
2751;DHT22;1383;48.362;10.908;2023-05-20T03:50:36;13.00;79.40
2751;DHT22;1383;48.362;10.908;2023-05-20T03:53:03;13.00;80.40
2751;DHT22;1383;48.362;10.908;2023-05-20T03:55:29;13.00;80.60
2751;DHT22;1383;48.362;10.908;2023-05-20T03:57:58;13.00;80.60
2751;DHT22;1383;48.362;10.908;2023-05-20T04:00:24;12.90;80.90
2751;DHT22;1383;48.362;10.908;2023-05-20T04:02:51;12.90;81.00
2751;DHT22;1383;48.362;10.908;2023-05-20T04:05:18;12.90;81.40
2751;DHT22;1383;48.362;10.908;2023-05-20T04:07:45;12.90;81.20
2751;DHT22;1383;48.362;10.908;2023-05-20T04:10:12;12.90;81.80
2751;DHT22;1383;48.362;10.908;2023-05-20T04:12:39;13.00;81.20
2751;DHT22;1383;48.362;10.908;2023-05-20T04:15:07;12.90;81.40
2751;DHT22;1383;48.362;10.908;2023-05-20T04:17:34;12.90;81.60
2751;DHT22;1383;48.362;10.908;2023-05-20T04:20:04;12.90;81.80
2751;DHT22;1383;48.362;10.908;2023-05-20T04:22:33;12.90;82.60
2751;DHT22;1383;48.362;10.908;2023-05-20T04:25:00;12.90;82.40
2751;DHT22;1383;48.362;10.908;2023-05-20T04:27:30;12.90;81.60
2751;DHT22;1383;48.362;10.908;2023-05-20T04:29:59;13.00;82.00
2751;DHT22;1383;48.362;10.908;2023-05-20T04:32:27;13.00;80.80
2751;DHT22;1383;48.362;10.908;2023-05-20T04:34:54;12.90;80.90
2751;DHT22;1383;48.362;10.908;2023-05-20T04:37:21;12.90;81.30
2751;DHT22;1383;48.362;10.908;2023-05-20T04:39:48;12.90;81.90
2751;DHT22;1383;48.362;10.908;2023-05-20T04:42:15;12.90;82.40
2751;DHT22;1383;48.362;10.908;2023-05-20T04:44:47;12.90;82.20
2751;DHT22;1383;48.362;10.908;2023-05-20T04:47:14;13.00;81.70
2751;DHT22;1383;48.362;10.908;2023-05-20T04:49:41;13.00;81.20
2751;DHT22;1383;48.362;10.908;2023-05-20T04:52:08;12.90;82.10
2751;DHT22;1383;48.362;10.908;2023-05-20T04:54:35;12.90;81.90
2751;DHT22;1383;48.362;10.908;2023-05-20T04:57:02;12.90;82.00
2751;DHT22;1383;48.362;10.908;2023-05-20T04:59:28;12.80;82.40
2751;DHT22;1383;48.362;10.908;2023-05-20T05:01:55;12.80;83.40
2751;DHT22;1383;48.362;10.908;2023-05-20T05:04:22;12.80;83.40
2751;DHT22;1383;48.362;10.908;2023-05-20T05:06:49;12.70;84.40
2751;DHT22;1383;48.362;10.908;2023-05-20T05:09:16;12.70;84.60
2751;DHT22;1383;48.362;10.908;2023-05-20T05:11:43;12.70;84.60
2751;DHT22;1383;48.362;10.908;2023-05-20T05:14:09;12.70;85.00
2751;DHT22;1383;48.362;10.908;2023-05-20T05:16:36;12.70;85.20
2751;DHT22;1383;48.362;10.908;2023-05-20T05:19:03;12.70;85.30
2751;DHT22;1383;48.362;10.908;2023-05-20T05:21:30;12.80;85.60
2751;DHT22;1383;48.362;10.908;2023-05-20T05:23:57;12.90;85.40
2751;DHT22;1383;48.362;10.908;2023-05-20T05:26:24;13.00;84.00
2751;DHT22;1383;48.362;10.908;2023-05-20T05:28:53;13.10;83.30
2751;DHT22;1383;48.362;10.908;2023-05-20T05:31:20;13.10;82.00
2751;DHT22;1383;48.362;10.908;2023-05-20T05:33:47;13.10;82.30
2751;DHT22;1383;48.362;10.908;2023-05-20T05:36:15;13.10;81.80
2751;DHT22;1383;48.362;10.908;2023-05-20T05:38:42;13.00;83.70
2751;DHT22;1383;48.362;10.908;2023-05-20T05:41:09;13.00;84.00
2751;DHT22;1383;48.362;10.908;2023-05-20T05:43:36;13.00;84.50
2751;DHT22;1383;48.362;10.908;2023-05-20T05:46:03;13.00;84.00
2751;DHT22;1383;48.362;10.908;2023-05-20T05:48:30;13.00;84.50
2751;DHT22;1383;48.362;10.908;2023-05-20T05:50:57;13.00;85.40
2751;DHT22;1383;48.362;10.908;2023-05-20T05:53:24;13.10;85.40
2751;DHT22;1383;48.362;10.908;2023-05-20T05:55:51;13.10;85.10
2751;DHT22;1383;48.362;10.908;2023-05-20T05:58:17;13.20;84.10
2751;DHT22;1383;48.362;10.908;2023-05-20T06:00:44;13.20;83.90
2751;DHT22;1383;48.362;10.908;2023-05-20T06:03:11;13.20;83.80
2751;DHT22;1383;48.362;10.908;2023-05-20T06:05:38;13.20;83.90
2751;DHT22;1383;48.362;10.908;2023-05-20T06:08:05;13.20;83.10
2751;DHT22;1383;48.362;10.908;2023-05-20T06:10:32;13.00;83.80
2751;DHT22;1383;48.362;10.908;2023-05-20T06:12:58;13.00;84.30
2751;DHT22;1383;48.362;10.908;2023-05-20T06:15:25;13.10;84.40
2751;DHT22;1383;48.362;10.908;2023-05-20T06:17:52;13.10;83.40
2751;DHT22;1383;48.362;10.908;2023-05-20T06:20:19;13.20;83.80
2751;DHT22;1383;48.362;10.908;2023-05-20T06:22:46;13.30;83.40
2751;DHT22;1383;48.362;10.908;2023-05-20T06:25:13;13.40;81.10
2751;DHT22;1383;48.362;10.908;2023-05-20T06:27:39;13.40;80.50
2751;DHT22;1383;48.362;10.908;2023-05-20T06:30:07;13.50;80.50
2751;DHT22;1383;48.362;10.908;2023-05-20T06:32:34;13.50;79.60
2751;DHT22;1383;48.362;10.908;2023-05-20T06:35:01;13.50;79.20
2751;DHT22;1383;48.362;10.908;2023-05-20T06:37:28;13.60;78.60
2751;DHT22;1383;48.362;10.908;2023-05-20T06:39:54;13.70;78.30
2751;DHT22;1383;48.362;10.908;2023-05-20T06:42:21;13.80;77.90
2751;DHT22;1383;48.362;10.908;2023-05-20T06:44:48;13.90;76.10
2751;DHT22;1383;48.362;10.908;2023-05-20T06:47:16;14.00;75.00
2751;DHT22;1383;48.362;10.908;2023-05-20T06:49:43;13.80;74.40
2751;DHT22;1383;48.362;10.908;2023-05-20T06:52:13;13.90;75.40
2751;DHT22;1383;48.362;10.908;2023-05-20T06:54:40;14.10;75.20
2751;DHT22;1383;48.362;10.908;2023-05-20T06:57:07;14.20;73.70
2751;DHT22;1383;48.362;10.908;2023-05-20T06:59:35;14.20;71.80
2751;DHT22;1383;48.362;10.908;2023-05-20T07:02:03;14.20;72.00
2751;DHT22;1383;48.362;10.908;2023-05-20T07:04:30;14.20;73.40
2751;DHT22;1383;48.362;10.908;2023-05-20T07:06:56;14.20;72.80
2751;DHT22;1383;48.362;10.908;2023-05-20T07:09:23;14.20;72.60
2751;DHT22;1383;48.362;10.908;2023-05-20T07:11:50;14.20;73.00
2751;DHT22;1383;48.362;10.908;2023-05-20T07:14:17;14.30;72.30
2751;DHT22;1383;48.362;10.908;2023-05-20T07:16:44;14.40;72.70
2751;DHT22;1383;48.362;10.908;2023-05-20T07:19:11;14.70;71.00
2751;DHT22;1383;48.362;10.908;2023-05-20T07:21:38;14.90;68.00
2751;DHT22;1383;48.362;10.908;2023-05-20T07:24:05;15.00;65.40
2751;DHT22;1383;48.362;10.908;2023-05-20T07:26:32;15.00;64.90
2751;DHT22;1383;48.362;10.908;2023-05-20T07:29:03;15.10;65.10
2751;DHT22;1383;48.362;10.908;2023-05-20T07:31:30;15.20;63.80
2751;DHT22;1383;48.362;10.908;2023-05-20T07:33:57;15.00;63.80
2751;DHT22;1383;48.362;10.908;2023-05-20T07:36:27;15.20;64.90
2751;DHT22;1383;48.362;10.908;2023-05-20T07:38:54;15.30;63.50
2751;DHT22;1383;48.362;10.908;2023-05-20T07:41:28;15.50;64.10
2751;DHT22;1383;48.362;10.908;2023-05-20T07:43:55;15.30;61.70
2751;DHT22;1383;48.362;10.908;2023-05-20T07:46:22;15.40;62.70
2751;DHT22;1383;48.362;10.908;2023-05-20T07:48:49;15.30;62.90
2751;DHT22;1383;48.362;10.908;2023-05-20T07:51:16;15.50;63.50
2751;DHT22;1383;48.362;10.908;2023-05-20T07:53:44;15.60;62.00
2751;DHT22;1383;48.362;10.908;2023-05-20T07:56:11;15.60;61.10
2751;DHT22;1383;48.362;10.908;2023-05-20T07:58:40;15.60;61.40
2751;DHT22;1383;48.362;10.908;2023-05-20T08:01:08;15.90;62.00
2751;DHT22;1383;48.362;10.908;2023-05-20T08:03:35;16.40;59.00
2751;DHT22;1383;48.362;10.908;2023-05-20T08:06:02;16.80;56.60
2751;DHT22;1383;48.362;10.908;2023-05-20T08:08:29;17.20;55.90
2751;DHT22;1383;48.362;10.908;2023-05-20T08:10:56;17.30;54.80
2751;DHT22;1383;48.362;10.908;2023-05-20T08:13:23;17.60;54.10
2751;DHT22;1383;48.362;10.908;2023-05-20T08:15:52;18.00;52.30
2751;DHT22;1383;48.362;10.908;2023-05-20T08:18:19;17.80;51.50
2751;DHT22;1383;48.362;10.908;2023-05-20T08:20:46;17.90;51.50
2751;DHT22;1383;48.362;10.908;2023-05-20T08:23:13;17.50;52.30
2751;DHT22;1383;48.362;10.908;2023-05-20T08:25:40;17.70;53.50
2751;DHT22;1383;48.362;10.908;2023-05-20T08:28:07;18.30;52.70
2751;DHT22;1383;48.362;10.908;2023-05-20T08:30:33;18.70;50.00
2751;DHT22;1383;48.362;10.908;2023-05-20T08:33:00;18.80;48.30
2751;DHT22;1383;48.362;10.908;2023-05-20T08:35:28;18.70;48.90
2751;DHT22;1383;48.362;10.908;2023-05-20T08:37:55;18.70;48.50
2751;DHT22;1383;48.362;10.908;2023-05-20T08:40:22;18.40;48.20
2751;DHT22;1383;48.362;10.908;2023-05-20T08:42:50;18.40;48.70
2751;DHT22;1383;48.362;10.908;2023-05-20T08:45:20;18.80;48.90
2751;DHT22;1383;48.362;10.908;2023-05-20T08:47:49;19.40;46.70
2751;DHT22;1383;48.362;10.908;2023-05-20T08:50:16;19.70;46.40
2751;DHT22;1383;48.362;10.908;2023-05-20T08:52:45;19.90;45.00
2751;DHT22;1383;48.362;10.908;2023-05-20T08:55:25;20.00;44.80
2751;DHT22;1383;48.362;10.908;2023-05-20T08:57:53;20.30;44.80
2751;DHT22;1383;48.362;10.908;2023-05-20T09:00:21;20.40;42.40
2751;DHT22;1383;48.362;10.908;2023-05-20T09:02:53;20.30;41.70
2751;DHT22;1383;48.362;10.908;2023-05-20T09:05:20;20.50;41.90
2751;DHT22;1383;48.362;10.908;2023-05-20T09:07:48;20.00;42.00
2751;DHT22;1383;48.362;10.908;2023-05-20T09:10:15;20.20;42.50
2751;DHT22;1383;48.362;10.908;2023-05-20T09:12:42;19.80;42.20
2751;DHT22;1383;48.362;10.908;2023-05-20T09:15:10;19.90;43.10
2751;DHT22;1383;48.362;10.908;2023-05-20T09:17:37;20.00;42.60
2751;DHT22;1383;48.362;10.908;2023-05-20T09:20:10;19.80;43.10
2751;DHT22;1383;48.362;10.908;2023-05-20T09:22:38;20.10;41.80
2751;DHT22;1383;48.362;10.908;2023-05-20T09:25:05;20.20;41.00
2751;DHT22;1383;48.362;10.908;2023-05-20T09:27:33;20.40;41.40
2751;DHT22;1383;48.362;10.908;2023-05-20T09:30:00;21.20;40.20
2751;DHT22;1383;48.362;10.908;2023-05-20T09:32:27;21.70;39.70
2751;DHT22;1383;48.362;10.908;2023-05-20T09:34:54;21.70;37.70
2751;DHT22;1383;48.362;10.908;2023-05-20T09:37:23;21.60;37.60
2751;DHT22;1383;48.362;10.908;2023-05-20T09:40:06;21.10;37.80
2751;DHT22;1383;48.362;10.908;2023-05-20T09:43:01;21.20;37.90
2751;DHT22;1383;48.362;10.908;2023-05-20T09:45:29;21.20;37.80
2751;DHT22;1383;48.362;10.908;2023-05-20T09:47:56;21.30;37.30
2751;DHT22;1383;48.362;10.908;2023-05-20T09:50:24;21.30;37.90
2751;DHT22;1383;48.362;10.908;2023-05-20T09:52:52;21.20;37.70
2751;DHT22;1383;48.362;10.908;2023-05-20T09:55:22;20.80;38.60
2751;DHT22;1383;48.362;10.908;2023-05-20T09:57:49;20.70;40.10
2751;DHT22;1383;48.362;10.908;2023-05-20T10:00:17;20.60;39.50
2751;DHT22;1383;48.362;10.908;2023-05-20T10:02:49;20.90;40.00
2751;DHT22;1383;48.362;10.908;2023-05-20T10:05:21;21.20;39.30
2751;DHT22;1383;48.362;10.908;2023-05-20T10:08:11;21.00;39.10
2751;DHT22;1383;48.362;10.908;2023-05-20T10:10:47;20.50;38.80
2751;DHT22;1383;48.362;10.908;2023-05-20T10:21:26;20.80;37.90
2751;DHT22;1383;48.362;10.908;2023-05-20T10:23:52;20.80;38.60
2751;DHT22;1383;48.362;10.908;2023-05-20T10:26:19;20.90;37.90
2751;DHT22;1383;48.362;10.908;2023-05-20T10:28:48;21.10;37.80
2751;DHT22;1383;48.362;10.908;2023-05-20T10:31:16;21.20;38.50
2751;DHT22;1383;48.362;10.908;2023-05-20T10:33:45;21.70;37.10
2751;DHT22;1383;48.362;10.908;2023-05-20T10:36:43;21.50;36.80
2751;DHT22;1383;48.362;10.908;2023-05-20T10:39:14;21.50;36.50
2751;DHT22;1383;48.362;10.908;2023-05-20T10:41:44;21.20;36.70
2751;DHT22;1383;48.362;10.908;2023-05-20T10:44:11;21.50;36.00
2751;DHT22;1383;48.362;10.908;2023-05-20T10:46:38;21.50;35.70
2751;DHT22;1383;48.362;10.908;2023-05-20T10:49:32;21.20;36.90
2751;DHT22;1383;48.362;10.908;2023-05-20T10:52:00;21.30;38.20
2751;DHT22;1383;48.362;10.908;2023-05-20T10:54:28;21.20;37.80
2751;DHT22;1383;48.362;10.908;2023-05-20T10:56:55;20.90;38.90
2751;DHT22;1383;48.362;10.908;2023-05-20T10:59:22;21.10;38.30
2751;DHT22;1383;48.362;10.908;2023-05-20T11:01:49;20.80;38.40
2751;DHT22;1383;48.362;10.908;2023-05-20T11:04:17;20.80;38.90
2751;DHT22;1383;48.362;10.908;2023-05-20T11:06:51;21.10;38.70
2751;DHT22;1383;48.362;10.908;2023-05-20T11:09:21;20.90;37.80
2751;DHT22;1383;48.362;10.908;2023-05-20T11:11:50;21.00;38.90
2751;DHT22;1383;48.362;10.908;2023-05-20T11:14:17;21.00;38.10
2751;DHT22;1383;48.362;10.908;2023-05-20T11:16:49;21.00;38.20
2751;DHT22;1383;48.362;10.908;2023-05-20T11:19:16;21.00;38.50
2751;DHT22;1383;48.362;10.908;2023-05-20T11:21:45;20.80;38.90
2751;DHT22;1383;48.362;10.908;2023-05-20T11:24:13;20.70;38.50
2751;DHT22;1383;48.362;10.908;2023-05-20T11:26:39;20.90;39.30
2751;DHT22;1383;48.362;10.908;2023-05-20T11:29:06;21.10;39.00
2751;DHT22;1383;48.362;10.908;2023-05-20T11:31:36;21.00;39.10
2751;DHT22;1383;48.362;10.908;2023-05-20T11:34:03;21.00;38.00
2751;DHT22;1383;48.362;10.908;2023-05-20T11:36:30;21.10;38.70
2751;DHT22;1383;48.362;10.908;2023-05-20T11:38:58;21.20;39.60
2751;DHT22;1383;48.362;10.908;2023-05-20T11:41:27;21.50;39.40
2751;DHT22;1383;48.362;10.908;2023-05-20T11:43:57;21.70;38.20
2751;DHT22;1383;48.362;10.908;2023-05-20T11:46:26;21.90;37.10
2751;DHT22;1383;48.362;10.908;2023-05-20T11:48:54;22.10;36.50
2751;DHT22;1383;48.362;10.908;2023-05-20T11:51:28;21.90;35.70
2751;DHT22;1383;48.362;10.908;2023-05-20T11:54:05;21.70;36.70
2751;DHT22;1383;48.362;10.908;2023-05-20T11:56:33;21.40;37.30
2751;DHT22;1383;48.362;10.908;2023-05-20T11:59:05;21.30;38.10
2751;DHT22;1383;48.362;10.908;2023-05-20T12:01:38;21.30;37.90
2751;DHT22;1383;48.362;10.908;2023-05-20T12:04:09;21.30;37.90
2751;DHT22;1383;48.362;10.908;2023-05-20T12:06:36;21.50;37.80
2751;DHT22;1383;48.362;10.908;2023-05-20T12:09:04;21.80;36.80
2751;DHT22;1383;48.362;10.908;2023-05-20T12:11:36;21.90;36.30
2751;DHT22;1383;48.362;10.908;2023-05-20T12:14:05;21.90;34.30
2751;DHT22;1383;48.362;10.908;2023-05-20T12:16:33;21.80;34.30
2751;DHT22;1383;48.362;10.908;2023-05-20T12:19:01;21.80;35.30
2751;DHT22;1383;48.362;10.908;2023-05-20T12:21:28;21.80;36.00
2751;DHT22;1383;48.362;10.908;2023-05-20T12:23:55;22.00;37.10
2751;DHT22;1383;48.362;10.908;2023-05-20T12:26:24;22.10;35.30
2751;DHT22;1383;48.362;10.908;2023-05-20T12:28:52;22.10;35.80
2751;DHT22;1383;48.362;10.908;2023-05-20T12:31:18;22.10;35.30
2751;DHT22;1383;48.362;10.908;2023-05-20T12:33:46;22.10;34.90
2751;DHT22;1383;48.362;10.908;2023-05-20T12:36:13;21.90;34.20
2751;DHT22;1383;48.362;10.908;2023-05-20T12:38:40;22.00;33.50
2751;DHT22;1383;48.362;10.908;2023-05-20T12:41:07;22.10;34.30
2751;DHT22;1383;48.362;10.908;2023-05-20T12:43:34;22.20;33.90
2751;DHT22;1383;48.362;10.908;2023-05-20T12:46:03;22.20;33.90
2751;DHT22;1383;48.362;10.908;2023-05-20T12:48:30;22.30;32.80
2751;DHT22;1383;48.362;10.908;2023-05-20T12:50:57;22.20;32.70
2751;DHT22;1383;48.362;10.908;2023-05-20T12:53:24;22.30;32.70
2751;DHT22;1383;48.362;10.908;2023-05-20T12:55:51;22.40;33.10
2751;DHT22;1383;48.362;10.908;2023-05-20T12:58:18;22.30;32.90
2751;DHT22;1383;48.362;10.908;2023-05-20T13:00:45;22.20;33.50
2751;DHT22;1383;48.362;10.908;2023-05-20T13:03:11;22.40;34.60
2751;DHT22;1383;48.362;10.908;2023-05-20T13:05:38;22.30;33.60
2751;DHT22;1383;48.362;10.908;2023-05-20T13:08:05;22.10;34.20
2751;DHT22;1383;48.362;10.908;2023-05-20T13:10:34;22.20;34.70
2751;DHT22;1383;48.362;10.908;2023-05-20T13:13:01;22.30;35.00
2751;DHT22;1383;48.362;10.908;2023-05-20T13:15:28;22.40;33.80
2751;DHT22;1383;48.362;10.908;2023-05-20T13:17:55;22.40;34.00
2751;DHT22;1383;48.362;10.908;2023-05-20T13:20:22;22.30;33.70
2751;DHT22;1383;48.362;10.908;2023-05-20T13:22:49;22.30;34.00
2751;DHT22;1383;48.362;10.908;2023-05-20T13:25:16;22.30;33.60
2751;DHT22;1383;48.362;10.908;2023-05-20T13:27:43;22.30;33.60
2751;DHT22;1383;48.362;10.908;2023-05-20T13:30:10;22.40;34.40
2751;DHT22;1383;48.362;10.908;2023-05-20T13:32:37;22.50;33.20
2751;DHT22;1383;48.362;10.908;2023-05-20T13:35:04;22.60;33.10
2751;DHT22;1383;48.362;10.908;2023-05-20T13:37:31;22.60;32.40
2751;DHT22;1383;48.362;10.908;2023-05-20T13:39:58;22.60;32.10
2751;DHT22;1383;48.362;10.908;2023-05-20T13:42:24;22.80;32.30
2751;DHT22;1383;48.362;10.908;2023-05-20T13:44:51;22.70;31.70
2751;DHT22;1383;48.362;10.908;2023-05-20T13:47:18;22.70;31.80
2751;DHT22;1383;48.362;10.908;2023-05-20T13:49:45;22.70;31.80
2751;DHT22;1383;48.362;10.908;2023-05-20T13:52:11;22.70;31.70
2751;DHT22;1383;48.362;10.908;2023-05-20T13:54:38;22.70;31.40
2751;DHT22;1383;48.362;10.908;2023-05-20T13:57:06;22.70;32.30
2751;DHT22;1383;48.362;10.908;2023-05-20T13:59:33;22.70;32.60
2751;DHT22;1383;48.362;10.908;2023-05-20T14:02:00;22.80;32.60
2751;DHT22;1383;48.362;10.908;2023-05-20T14:04:28;22.70;33.00
2751;DHT22;1383;48.362;10.908;2023-05-20T14:06:56;22.80;33.10
2751;DHT22;1383;48.362;10.908;2023-05-20T14:09:25;22.70;34.50
2751;DHT22;1383;48.362;10.908;2023-05-20T14:11:52;22.90;33.60
2751;DHT22;1383;48.362;10.908;2023-05-20T14:14:19;23.00;33.60
2751;DHT22;1383;48.362;10.908;2023-05-20T14:16:46;23.10;33.50
2751;DHT22;1383;48.362;10.908;2023-05-20T14:19:13;23.20;32.40
2751;DHT22;1383;48.362;10.908;2023-05-20T14:21:39;23.10;32.30
2751;DHT22;1383;48.362;10.908;2023-05-20T14:24:06;23.20;32.20
2751;DHT22;1383;48.362;10.908;2023-05-20T14:26:33;23.20;31.90
2751;DHT22;1383;48.362;10.908;2023-05-20T14:29:00;23.20;31.50
2751;DHT22;1383;48.362;10.908;2023-05-20T14:31:27;23.00;30.70
2751;DHT22;1383;48.362;10.908;2023-05-20T14:33:53;23.00;30.90
2751;DHT22;1383;48.362;10.908;2023-05-20T14:36:20;22.90;30.80
2751;DHT22;1383;48.362;10.908;2023-05-20T14:38:47;22.90;32.20
2751;DHT22;1383;48.362;10.908;2023-05-20T14:41:15;23.00;31.20
2751;DHT22;1383;48.362;10.908;2023-05-20T14:43:42;23.00;31.00
2751;DHT22;1383;48.362;10.908;2023-05-20T14:46:09;23.00;31.20
2751;DHT22;1383;48.362;10.908;2023-05-20T14:48:36;22.90;31.20
2751;DHT22;1383;48.362;10.908;2023-05-20T14:51:03;22.90;31.20
2751;DHT22;1383;48.362;10.908;2023-05-20T14:53:30;22.90;31.50
2751;DHT22;1383;48.362;10.908;2023-05-20T14:55:56;22.90;30.20
2751;DHT22;1383;48.362;10.908;2023-05-20T14:58:23;22.90;30.20
2751;DHT22;1383;48.362;10.908;2023-05-20T15:00:52;23.00;30.70
2751;DHT22;1383;48.362;10.908;2023-05-20T15:03:19;23.00;30.50
2751;DHT22;1383;48.362;10.908;2023-05-20T15:05:46;22.90;30.00
2751;DHT22;1383;48.362;10.908;2023-05-20T15:08:12;22.90;30.60
2751;DHT22;1383;48.362;10.908;2023-05-20T15:10:39;23.00;30.50
2751;DHT22;1383;48.362;10.908;2023-05-20T15:13:06;23.10;31.00
2751;DHT22;1383;48.362;10.908;2023-05-20T15:15:33;23.20;30.50
2751;DHT22;1383;48.362;10.908;2023-05-20T15:18:00;23.20;30.40
2751;DHT22;1383;48.362;10.908;2023-05-20T15:20:27;23.30;29.40
2751;DHT22;1383;48.362;10.908;2023-05-20T15:22:55;23.40;29.30
2751;DHT22;1383;48.362;10.908;2023-05-20T15:25:22;23.30;28.50
2751;DHT22;1383;48.362;10.908;2023-05-20T15:27:49;23.40;28.80
2751;DHT22;1383;48.362;10.908;2023-05-20T15:30:16;23.10;28.30
2751;DHT22;1383;48.362;10.908;2023-05-20T15:32:42;23.10;29.20
2751;DHT22;1383;48.362;10.908;2023-05-20T15:35:09;23.20;29.10
2751;DHT22;1383;48.362;10.908;2023-05-20T15:37:37;23.20;29.30
2751;DHT22;1383;48.362;10.908;2023-05-20T15:40:04;23.20;29.60
2751;DHT22;1383;48.362;10.908;2023-05-20T15:42:31;23.10;29.40
2751;DHT22;1383;48.362;10.908;2023-05-20T15:44:58;23.00;29.90
2751;DHT22;1383;48.362;10.908;2023-05-20T15:47:25;22.90;30.60
2751;DHT22;1383;48.362;10.908;2023-05-20T15:49:52;22.90;30.60
2751;DHT22;1383;48.362;10.908;2023-05-20T15:52:20;23.00;30.80
2751;DHT22;1383;48.362;10.908;2023-05-20T15:54:46;23.10;30.90
2751;DHT22;1383;48.362;10.908;2023-05-20T15:57:13;23.20;31.00